sensor_id;sensor_type;location;lat;lon;timestamp;temperature;humidity
14057;DHT22;7103;54.300;10.180;2022-09-09T00:00:25;14.80;1.00
14057;DHT22;7103;54.300;10.180;2022-09-09T00:03:03;14.80;1.00
14057;DHT22;7103;54.300;10.180;2022-09-09T00:08:03;14.80;1.00
14057;DHT22;7103;54.300;10.180;2022-09-09T00:10:39;14.90;1.00
14057;DHT22;7103;54.300;10.180;2022-09-09T00:13:30;14.80;1.00
14057;DHT22;7103;54.300;10.180;2022-09-09T00:16:03;14.80;1.00
14057;DHT22;7103;54.300;10.180;2022-09-09T00:21:08;14.90;1.00
14057;DHT22;7103;54.300;10.180;2022-09-09T00:23:46;15.00;1.00
14057;DHT22;7103;54.300;10.180;2022-09-09T00:26:42;15.00;1.00
14057;DHT22;7103;54.300;10.180;2022-09-09T00:31:47;15.00;1.00
14057;DHT22;7103;54.300;10.180;2022-09-09T00:34:18;15.00;1.00
14057;DHT22;7103;54.300;10.180;2022-09-09T00:36:48;15.00;1.00
14057;DHT22;7103;54.300;10.180;2022-09-09T00:39:38;15.00;1.00
14057;DHT22;7103;54.300;10.180;2022-09-09T00:44:37;15.10;1.00
14057;DHT22;7103;54.300;10.180;2022-09-09T00:47:12;15.10;1.00
14057;DHT22;7103;54.300;10.180;2022-09-09T00:52:40;15.20;1.00
14057;DHT22;7103;54.300;10.180;2022-09-09T00:57:52;15.20;1.00
14057;DHT22;7103;54.300;10.180;2022-09-09T01:00:24;15.20;1.00
14057;DHT22;7103;54.300;10.180;2022-09-09T01:08:02;15.10;1.00
14057;DHT22;7103;54.300;10.180;2022-09-09T01:10:42;15.20;1.00
14057;DHT22;7103;54.300;10.180;2022-09-09T01:13:30;15.20;1.00
14057;DHT22;7103;54.300;10.180;2022-09-09T01:15:59;15.10;1.00
14057;DHT22;7103;54.300;10.180;2022-09-09T01:18:31;15.10;1.00
14057;DHT22;7103;54.300;10.180;2022-09-09T01:21:20;15.10;1.00
14057;DHT22;7103;54.300;10.180;2022-09-09T01:26:41;15.00;1.00
14057;DHT22;7103;54.300;10.180;2022-09-09T01:29:11;15.00;1.00
14057;DHT22;7103;54.300;10.180;2022-09-09T01:31:51;15.00;1.00
14057;DHT22;7103;54.300;10.180;2022-09-09T01:34:19;14.90;1.00
14057;DHT22;7103;54.300;10.180;2022-09-09T01:36:51;15.00;1.00
14057;DHT22;7103;54.300;10.180;2022-09-09T01:39:20;14.90;1.00
14057;DHT22;7103;54.300;10.180;2022-09-09T01:41:47;14.90;1.00
14057;DHT22;7103;54.300;10.180;2022-09-09T01:44:14;15.00;1.00
14057;DHT22;7103;54.300;10.180;2022-09-09T01:46:41;15.00;1.00
14057;DHT22;7103;54.300;10.180;2022-09-09T01:49:08;15.00;1.00
14057;DHT22;7103;54.300;10.180;2022-09-09T01:51:37;15.00;1.00
14057;DHT22;7103;54.300;10.180;2022-09-09T01:54:06;15.00;1.00
14057;DHT22;7103;54.300;10.180;2022-09-09T02:02:21;15.10;1.00
14057;DHT22;7103;54.300;10.180;2022-09-09T02:07:49;15.10;1.00
14057;DHT22;7103;54.300;10.180;2022-09-09T02:10:25;15.00;1.00
14057;DHT22;7103;54.300;10.180;2022-09-09T02:13:12;15.00;1.00
14057;DHT22;7103;54.300;10.180;2022-09-09T02:18:12;15.00;1.00
14057;DHT22;7103;54.300;10.180;2022-09-09T02:20:41;15.10;1.90
14057;DHT22;7103;54.300;10.180;2022-09-09T02:23:09;15.10;1.00
14057;DHT22;7103;54.300;10.180;2022-09-09T02:25:37;15.00;1.00
14057;DHT22;7103;54.300;10.180;2022-09-09T02:28:12;15.10;1.00
14057;DHT22;7103;54.300;10.180;2022-09-09T02:30:42;15.00;1.00
14057;DHT22;7103;54.300;10.180;2022-09-09T02:33:14;15.00;1.00
14057;DHT22;7103;54.300;10.180;2022-09-09T02:35:42;15.00;1.00
14057;DHT22;7103;54.300;10.180;2022-09-09T02:38:12;15.00;1.00
14057;DHT22;7103;54.300;10.180;2022-09-09T02:40:40;15.00;1.00
14057;DHT22;7103;54.300;10.180;2022-09-09T02:43:07;15.10;1.00
14057;DHT22;7103;54.300;10.180;2022-09-09T02:48:36;15.10;1.00
14057;DHT22;7103;54.300;10.180;2022-09-09T02:51:10;15.00;1.00
14057;DHT22;7103;54.300;10.180;2022-09-09T02:53:43;15.00;1.00
14057;DHT22;7103;54.300;10.180;2022-09-09T02:56:20;15.00;1.00
14057;DHT22;7103;54.300;10.180;2022-09-09T02:58:48;15.10;1.00
14057;DHT22;7103;54.300;10.180;2022-09-09T03:01:16;15.10;1.00
14057;DHT22;7103;54.300;10.180;2022-09-09T03:03:44;15.10;1.00
14057;DHT22;7103;54.300;10.180;2022-09-09T03:06:10;15.10;1.00
14057;DHT22;7103;54.300;10.180;2022-09-09T03:08:38;15.10;1.00
14057;DHT22;7103;54.300;10.180;2022-09-09T03:11:05;15.20;1.00
14057;DHT22;7103;54.300;10.180;2022-09-09T03:13:32;15.10;1.00
14057;DHT22;7103;54.300;10.180;2022-09-09T03:15:59;15.10;1.00
14057;DHT22;7103;54.300;10.180;2022-09-09T03:18:26;15.10;1.00
14057;DHT22;7103;54.300;10.180;2022-09-09T03:20:54;15.10;1.00
14057;DHT22;7103;54.300;10.180;2022-09-09T03:23:21;15.10;1.00
14057;DHT22;7103;54.300;10.180;2022-09-09T03:25:51;15.00;1.00
14057;DHT22;7103;54.300;10.180;2022-09-09T03:28:19;15.00;1.00
14057;DHT22;7103;54.300;10.180;2022-09-09T03:30:46;15.00;1.00
14057;DHT22;7103;54.300;10.180;2022-09-09T03:33:13;15.00;1.00
14057;DHT22;7103;54.300;10.180;2022-09-09T03:35:46;15.00;1.00
14057;DHT22;7103;54.300;10.180;2022-09-09T03:38:14;15.10;1.00
14057;DHT22;7103;54.300;10.180;2022-09-09T03:40:48;15.10;1.00
14057;DHT22;7103;54.300;10.180;2022-09-09T03:43:15;15.10;1.00
14057;DHT22;7103;54.300;10.180;2022-09-09T03:45:46;15.00;1.00
14057;DHT22;7103;54.300;10.180;2022-09-09T03:48:17;14.90;1.00
14057;DHT22;7103;54.300;10.180;2022-09-09T03:50:46;14.90;1.00
14057;DHT22;7103;54.300;10.180;2022-09-09T03:53:15;15.00;1.00
14057;DHT22;7103;54.300;10.180;2022-09-09T03:55:45;14.90;1.00
14057;DHT22;7103;54.300;10.180;2022-09-09T03:58:14;14.90;1.00
14057;DHT22;7103;54.300;10.180;2022-09-09T04:00:41;14.90;1.00
14057;DHT22;7103;54.300;10.180;2022-09-09T04:03:09;14.90;1.00
14057;DHT22;7103;54.300;10.180;2022-09-09T04:05:36;14.90;1.00
14057;DHT22;7103;54.300;10.180;2022-09-09T04:08:06;14.90;1.00
14057;DHT22;7103;54.300;10.180;2022-09-09T04:10:33;14.90;1.00
14057;DHT22;7103;54.300;10.180;2022-09-09T04:13:04;14.90;1.00
14057;DHT22;7103;54.300;10.180;2022-09-09T04:15:31;14.90;1.00
14057;DHT22;7103;54.300;10.180;2022-09-09T04:17:58;15.00;1.00
14057;DHT22;7103;54.300;10.180;2022-09-09T04:20:25;15.00;1.00
14057;DHT22;7103;54.300;10.180;2022-09-09T04:22:52;15.00;1.00
14057;DHT22;7103;54.300;10.180;2022-09-09T04:25:21;15.10;1.00
14057;DHT22;7103;54.300;10.180;2022-09-09T04:27:54;15.00;1.00
14057;DHT22;7103;54.300;10.180;2022-09-09T04:30:21;15.00;1.00
14057;DHT22;7103;54.300;10.180;2022-09-09T04:32:48;14.90;1.00
14057;DHT22;7103;54.300;10.180;2022-09-09T04:35:15;14.90;1.00
14057;DHT22;7103;54.300;10.180;2022-09-09T04:37:42;15.00;1.00
14057;DHT22;7103;54.300;10.180;2022-09-09T04:40:09;15.00;1.00
14057;DHT22;7103;54.300;10.180;2022-09-09T04:42:36;14.90;1.00
14057;DHT22;7103;54.300;10.180;2022-09-09T04:45:03;15.00;1.00
14057;DHT22;7103;54.300;10.180;2022-09-09T04:47:30;14.90;1.00
14057;DHT22;7103;54.300;10.180;2022-09-09T04:49:57;15.00;1.00
14057;DHT22;7103;54.300;10.180;2022-09-09T04:52:24;15.00;1.00
14057;DHT22;7103;54.300;10.180;2022-09-09T04:54:51;15.10;1.00
14057;DHT22;7103;54.300;10.180;2022-09-09T04:57:20;14.90;1.00
14057;DHT22;7103;54.300;10.180;2022-09-09T04:59:47;14.90;1.00
14057;DHT22;7103;54.300;10.180;2022-09-09T05:02:14;15.00;1.00
14057;DHT22;7103;54.300;10.180;2022-09-09T05:04:41;15.00;1.00
14057;DHT22;7103;54.300;10.180;2022-09-09T05:07:08;14.90;1.00
14057;DHT22;7103;54.300;10.180;2022-09-09T05:09:35;14.90;1.00
14057;DHT22;7103;54.300;10.180;2022-09-09T05:12:01;14.90;1.00
14057;DHT22;7103;54.300;10.180;2022-09-09T05:14:29;14.90;1.00
14057;DHT22;7103;54.300;10.180;2022-09-09T05:16:56;15.10;1.00
14057;DHT22;7103;54.300;10.180;2022-09-09T05:19:24;15.10;1.00
14057;DHT22;7103;54.300;10.180;2022-09-09T05:21:51;15.10;1.00
14057;DHT22;7103;54.300;10.180;2022-09-09T05:24:18;15.10;1.00
14057;DHT22;7103;54.300;10.180;2022-09-09T05:26:44;15.20;1.00
14057;DHT22;7103;54.300;10.180;2022-09-09T05:29:11;15.20;1.00
14057;DHT22;7103;54.300;10.180;2022-09-09T05:31:38;15.20;1.00
14057;DHT22;7103;54.300;10.180;2022-09-09T05:34:05;15.10;1.00
14057;DHT22;7103;54.300;10.180;2022-09-09T05:36:32;15.10;1.00
14057;DHT22;7103;54.300;10.180;2022-09-09T05:38:59;15.10;1.00
14057;DHT22;7103;54.300;10.180;2022-09-09T05:41:27;15.30;1.00
14057;DHT22;7103;54.300;10.180;2022-09-09T05:43:55;15.30;1.00
14057;DHT22;7103;54.300;10.180;2022-09-09T05:46:23;15.30;1.00
14057;DHT22;7103;54.300;10.180;2022-09-09T05:48:52;15.40;1.00
14057;DHT22;7103;54.300;10.180;2022-09-09T05:51:22;15.40;1.00
14057;DHT22;7103;54.300;10.180;2022-09-09T05:53:50;15.30;1.00
14057;DHT22;7103;54.300;10.180;2022-09-09T05:56:23;15.30;1.00
14057;DHT22;7103;54.300;10.180;2022-09-09T05:58:52;15.30;1.00
14057;DHT22;7103;54.300;10.180;2022-09-09T06:01:29;15.20;1.00
14057;DHT22;7103;54.300;10.180;2022-09-09T06:03:57;15.30;1.00
14057;DHT22;7103;54.300;10.180;2022-09-09T06:06:27;15.30;1.00
14057;DHT22;7103;54.300;10.180;2022-09-09T06:08:56;15.20;1.00
14057;DHT22;7103;54.300;10.180;2022-09-09T06:11:28;15.20;1.00
14057;DHT22;7103;54.300;10.180;2022-09-09T06:13:58;15.20;1.00
14057;DHT22;7103;54.300;10.180;2022-09-09T06:16:26;15.40;1.00
14057;DHT22;7103;54.300;10.180;2022-09-09T06:18:55;15.40;1.00
14057;DHT22;7103;54.300;10.180;2022-09-09T06:21:43;15.40;1.00
14057;DHT22;7103;54.300;10.180;2022-09-09T06:24:11;15.40;1.00
14057;DHT22;7103;54.300;10.180;2022-09-09T06:26:40;15.50;1.00
14057;DHT22;7103;54.300;10.180;2022-09-09T06:29:08;15.50;1.00
14057;DHT22;7103;54.300;10.180;2022-09-09T06:31:35;15.60;1.00
14057;DHT22;7103;54.300;10.180;2022-09-09T06:34:08;15.60;1.00
14057;DHT22;7103;54.300;10.180;2022-09-09T06:36:37;15.60;1.00
14057;DHT22;7103;54.300;10.180;2022-09-09T06:39:06;15.60;1.00
14057;DHT22;7103;54.300;10.180;2022-09-09T06:41:39;15.60;1.00
14057;DHT22;7103;54.300;10.180;2022-09-09T06:44:06;15.60;1.00
14057;DHT22;7103;54.300;10.180;2022-09-09T06:46:33;15.70;1.00
14057;DHT22;7103;54.300;10.180;2022-09-09T06:49:02;15.70;1.00
14057;DHT22;7103;54.300;10.180;2022-09-09T06:51:31;15.60;1.00
14057;DHT22;7103;54.300;10.180;2022-09-09T06:54:01;15.70;1.00
14057;DHT22;7103;54.300;10.180;2022-09-09T06:56:36;15.70;1.00
14057;DHT22;7103;54.300;10.180;2022-09-09T06:59:05;15.70;1.00
14057;DHT22;7103;54.300;10.180;2022-09-09T07:01:37;15.70;1.00
14057;DHT22;7103;54.300;10.180;2022-09-09T07:04:05;15.60;1.00
14057;DHT22;7103;54.300;10.180;2022-09-09T07:06:40;15.70;1.00
14057;DHT22;7103;54.300;10.180;2022-09-09T07:09:09;15.70;1.00
14057;DHT22;7103;54.300;10.180;2022-09-09T07:11:39;15.70;1.00
14057;DHT22;7103;54.300;10.180;2022-09-09T07:14:08;15.70;1.00
14057;DHT22;7103;54.300;10.180;2022-09-09T07:16:35;15.90;1.00
14057;DHT22;7103;54.300;10.180;2022-09-09T07:19:04;16.20;1.00
14057;DHT22;7103;54.300;10.180;2022-09-09T07:21:31;16.40;99.90
14057;DHT22;7103;54.300;10.180;2022-09-09T07:23:59;16.40;99.90
14057;DHT22;7103;54.300;10.180;2022-09-09T07:26:28;16.60;99.90
14057;DHT22;7103;54.300;10.180;2022-09-09T07:28:55;16.90;99.90
14057;DHT22;7103;54.300;10.180;2022-09-09T07:31:33;17.10;99.90
14057;DHT22;7103;54.300;10.180;2022-09-09T07:34:01;17.00;99.90
14057;DHT22;7103;54.300;10.180;2022-09-09T07:36:30;17.00;99.90
14057;DHT22;7103;54.300;10.180;2022-09-09T07:39:07;17.00;99.90
14057;DHT22;7103;54.300;10.180;2022-09-09T07:41:41;16.90;99.90
14057;DHT22;7103;54.300;10.180;2022-09-09T07:44:13;16.70;99.90
14057;DHT22;7103;54.300;10.180;2022-09-09T07:46:40;16.90;99.90
14057;DHT22;7103;54.300;10.180;2022-09-09T07:49:08;17.00;99.90
14057;DHT22;7103;54.300;10.180;2022-09-09T07:51:38;17.00;99.90
14057;DHT22;7103;54.300;10.180;2022-09-09T07:54:08;17.00;99.90
14057;DHT22;7103;54.300;10.180;2022-09-09T07:56:36;17.10;99.90
14057;DHT22;7103;54.300;10.180;2022-09-09T07:59:06;17.40;99.90
14057;DHT22;7103;54.300;10.180;2022-09-09T08:01:36;17.70;99.90
14057;DHT22;7103;54.300;10.180;2022-09-09T08:04:11;18.10;99.90
14057;DHT22;7103;54.300;10.180;2022-09-09T08:06:43;18.10;96.50
14057;DHT22;7103;54.300;10.180;2022-09-09T08:09:10;18.40;85.60
14057;DHT22;7103;54.300;10.180;2022-09-09T08:11:38;18.50;79.50
14057;DHT22;7103;54.300;10.180;2022-09-09T08:14:09;18.80;50.10
14057;DHT22;7103;54.300;10.180;2022-09-09T08:16:40;19.20;28.00
14057;DHT22;7103;54.300;10.180;2022-09-09T08:19:07;19.80;1.00
14057;DHT22;7103;54.300;10.180;2022-09-09T08:21:36;20.20;1.00
14057;DHT22;7103;54.300;10.180;2022-09-09T08:24:06;19.90;1.00
14057;DHT22;7103;54.300;10.180;2022-09-09T08:26:45;20.00;1.00
14057;DHT22;7103;54.300;10.180;2022-09-09T08:29:13;20.10;1.00
14057;DHT22;7103;54.300;10.180;2022-09-09T08:31:46;20.60;1.00
14057;DHT22;7103;54.300;10.180;2022-09-09T08:34:14;20.90;1.00
14057;DHT22;7103;54.300;10.180;2022-09-09T08:36:43;21.10;1.00
14057;DHT22;7103;54.300;10.180;2022-09-09T08:39:13;21.30;1.00
14057;DHT22;7103;54.300;10.180;2022-09-09T08:44:13;20.80;1.00
14057;DHT22;7103;54.300;10.180;2022-09-09T08:46:44;20.10;1.00
14057;DHT22;7103;54.300;10.180;2022-09-09T08:55:30;19.50;1.00
14057;DHT22;7103;54.300;10.180;2022-09-09T09:03:52;19.20;1.00
14057;DHT22;7103;54.300;10.180;2022-09-09T09:06:31;19.30;1.00
14057;DHT22;7103;54.300;10.180;2022-09-09T09:09:28;19.10;1.00
14057;DHT22;7103;54.300;10.180;2022-09-09T09:11:59;19.00;1.00
14057;DHT22;7103;54.300;10.180;2022-09-09T09:14:34;19.10;1.00
14057;DHT22;7103;54.300;10.180;2022-09-09T09:17:05;19.10;1.00
14057;DHT22;7103;54.300;10.180;2022-09-09T09:19:34;19.20;1.00
14057;DHT22;7103;54.300;10.180;2022-09-09T09:22:18;19.40;1.00
14057;DHT22;7103;54.300;10.180;2022-09-09T09:27:43;19.70;1.00
14057;DHT22;7103;54.300;10.180;2022-09-09T09:30:17;19.80;1.00
14057;DHT22;7103;54.300;10.180;2022-09-09T09:35:41;19.80;1.00
14057;DHT22;7103;54.300;10.180;2022-09-09T09:41:03;20.70;1.00
14057;DHT22;7103;54.300;10.180;2022-09-09T09:45:59;21.40;1.00
14057;DHT22;7103;54.300;10.180;2022-09-09T09:48:43;21.90;1.00
14057;DHT22;7103;54.300;10.180;2022-09-09T09:51:14;21.60;1.00
14057;DHT22;7103;54.300;10.180;2022-09-09T09:53:43;21.40;1.00
14057;DHT22;7103;54.300;10.180;2022-09-09T09:56:12;21.20;1.00
14057;DHT22;7103;54.300;10.180;2022-09-09T10:01:39;21.00;1.00
14057;DHT22;7103;54.300;10.180;2022-09-09T10:04:21;21.30;1.00
14057;DHT22;7103;54.300;10.180;2022-09-09T10:06:50;21.40;1.00
14057;DHT22;7103;54.300;10.180;2022-09-09T10:12:01;21.90;1.00
14057;DHT22;7103;54.300;10.180;2022-09-09T10:22:47;22.80;1.00
14057;DHT22;7103;54.300;10.180;2022-09-09T10:25:33;22.70;1.00
14057;DHT22;7103;54.300;10.180;2022-09-09T10:31:01;23.50;1.00
14057;DHT22;7103;54.300;10.180;2022-09-09T10:33:51;23.90;1.00
14057;DHT22;7103;54.300;10.180;2022-09-09T10:36:24;23.90;1.00
14057;DHT22;7103;54.300;10.180;2022-09-09T10:39:04;23.60;1.00
14057;DHT22;7103;54.300;10.180;2022-09-09T10:44:30;24.10;1.00
14057;DHT22;7103;54.300;10.180;2022-09-09T10:50:12;24.10;1.00
14057;DHT22;7103;54.300;10.180;2022-09-09T10:55:32;24.80;1.00
14057;DHT22;7103;54.300;10.180;2022-09-09T10:58:04;24.90;1.00
14057;DHT22;7103;54.300;10.180;2022-09-09T11:00:45;24.90;1.00
14057;DHT22;7103;54.300;10.180;2022-09-09T11:03:25;24.20;1.00
14057;DHT22;7103;54.300;10.180;2022-09-09T11:06:22;23.70;1.00
14057;DHT22;7103;54.300;10.180;2022-09-09T11:08:47;24.00;1.00
14057;DHT22;7103;54.300;10.180;2022-09-09T11:11:27;23.80;1.00
14057;DHT22;7103;54.300;10.180;2022-09-09T11:17:09;24.10;1.00
14057;DHT22;7103;54.300;10.180;2022-09-09T11:19:42;24.00;1.00
14057;DHT22;7103;54.300;10.180;2022-09-09T11:22:36;23.60;1.00
14057;DHT22;7103;54.300;10.180;2022-09-09T11:25:06;23.30;1.00
14057;DHT22;7103;54.300;10.180;2022-09-09T11:30:20;24.10;1.00
14057;DHT22;7103;54.300;10.180;2022-09-09T11:33:31;24.60;1.00
14057;DHT22;7103;54.300;10.180;2022-09-09T11:39:14;25.00;1.00
14057;DHT22;7103;54.300;10.180;2022-09-09T11:41:43;24.50;1.00
14057;DHT22;7103;54.300;10.180;2022-09-09T11:44:12;25.00;1.00
14057;DHT22;7103;54.300;10.180;2022-09-09T11:46:46;24.50;1.00
14057;DHT22;7103;54.300;10.180;2022-09-09T11:49:39;24.50;1.00
14057;DHT22;7103;54.300;10.180;2022-09-09T11:55:27;24.10;1.00
14057;DHT22;7103;54.300;10.180;2022-09-09T11:58:00;24.10;1.00
14057;DHT22;7103;54.300;10.180;2022-09-09T12:00:39;24.30;1.00
14057;DHT22;7103;54.300;10.180;2022-09-09T12:08:43;24.40;1.00
14057;DHT22;7103;54.300;10.180;2022-09-09T12:11:12;24.70;1.00
14057;DHT22;7103;54.300;10.180;2022-09-09T12:13:56;25.00;1.00
14057;DHT22;7103;54.300;10.180;2022-09-09T12:16:37;25.20;1.00
14057;DHT22;7103;54.300;10.180;2022-09-09T12:22:24;24.70;1.00
14057;DHT22;7103;54.300;10.180;2022-09-09T12:27:20;24.30;1.00
14057;DHT22;7103;54.300;10.180;2022-09-09T12:29:58;24.40;1.00
14057;DHT22;7103;54.300;10.180;2022-09-09T12:32:27;24.40;1.00
14057;DHT22;7103;54.300;10.180;2022-09-09T12:37:40;24.80;1.00
14057;DHT22;7103;54.300;10.180;2022-09-09T12:40:32;25.00;1.00
14057;DHT22;7103;54.300;10.180;2022-09-09T12:43:15;25.00;1.00
14057;DHT22;7103;54.300;10.180;2022-09-09T12:45:43;25.00;1.00
14057;DHT22;7103;54.300;10.180;2022-09-09T12:48:12;24.50;1.00
14057;DHT22;7103;54.300;10.180;2022-09-09T12:50:52;24.30;1.00
14057;DHT22;7103;54.300;10.180;2022-09-09T12:53:25;24.60;1.00
14057;DHT22;7103;54.300;10.180;2022-09-09T12:55:59;24.80;1.00
14057;DHT22;7103;54.300;10.180;2022-09-09T12:58:27;25.00;1.00
14057;DHT22;7103;54.300;10.180;2022-09-09T13:01:00;25.00;1.00
14057;DHT22;7103;54.300;10.180;2022-09-09T13:03:27;25.00;1.00
14057;DHT22;7103;54.300;10.180;2022-09-09T13:05:58;25.00;1.00
14057;DHT22;7103;54.300;10.180;2022-09-09T13:08:26;24.40;1.00
14057;DHT22;7103;54.300;10.180;2022-09-09T13:10:57;24.20;1.00
14057;DHT22;7103;54.300;10.180;2022-09-09T13:13:38;23.90;1.00
14057;DHT22;7103;54.300;10.180;2022-09-09T13:16:18;23.50;1.00
14057;DHT22;7103;54.300;10.180;2022-09-09T13:18:46;23.30;1.00
14057;DHT22;7103;54.300;10.180;2022-09-09T13:21:13;23.40;1.00
14057;DHT22;7103;54.300;10.180;2022-09-09T13:23:41;23.70;1.00
14057;DHT22;7103;54.300;10.180;2022-09-09T13:26:26;23.50;1.00
14057;DHT22;7103;54.300;10.180;2022-09-09T13:28:53;23.50;1.00
14057;DHT22;7103;54.300;10.180;2022-09-09T13:31:29;23.90;1.00
14057;DHT22;7103;54.300;10.180;2022-09-09T13:33:56;24.00;1.00
14057;DHT22;7103;54.300;10.180;2022-09-09T13:36:32;24.10;1.00
14057;DHT22;7103;54.300;10.180;2022-09-09T13:39:02;24.00;1.00
14057;DHT22;7103;54.300;10.180;2022-09-09T13:41:35;23.90;1.00
14057;DHT22;7103;54.300;10.180;2022-09-09T13:44:03;23.90;1.00
14057;DHT22;7103;54.300;10.180;2022-09-09T13:46:33;23.80;1.00
14057;DHT22;7103;54.300;10.180;2022-09-09T13:49:23;23.80;1.00
14057;DHT22;7103;54.300;10.180;2022-09-09T13:52:04;23.70;1.00
14057;DHT22;7103;54.300;10.180;2022-09-09T13:54:31;23.70;1.00
14057;DHT22;7103;54.300;10.180;2022-09-09T13:56:58;23.50;1.00
14057;DHT22;7103;54.300;10.180;2022-09-09T13:59:25;23.10;1.00
14057;DHT22;7103;54.300;10.180;2022-09-09T14:02:13;23.00;1.00
14057;DHT22;7103;54.300;10.180;2022-09-09T14:04:40;23.10;1.00
14057;DHT22;7103;54.300;10.180;2022-09-09T14:07:17;23.10;1.00
14057;DHT22;7103;54.300;10.180;2022-09-09T14:09:44;23.30;1.00
14057;DHT22;7103;54.300;10.180;2022-09-09T14:12:16;23.30;1.00
14057;DHT22;7103;54.300;10.180;2022-09-09T14:14:43;23.10;1.00
14057;DHT22;7103;54.300;10.180;2022-09-09T14:17:10;22.70;1.00
14057;DHT22;7103;54.300;10.180;2022-09-09T14:19:37;22.60;1.00
14057;DHT22;7103;54.300;10.180;2022-09-09T14:22:04;22.20;1.00
14057;DHT22;7103;54.300;10.180;2022-09-09T14:24:31;21.80;1.00
14057;DHT22;7103;54.300;10.180;2022-09-09T14:26:58;21.90;1.00
14057;DHT22;7103;54.300;10.180;2022-09-09T14:29:24;21.70;1.00
14057;DHT22;7103;54.300;10.180;2022-09-09T14:31:53;21.70;1.00
14057;DHT22;7103;54.300;10.180;2022-09-09T14:34:20;21.80;1.00
14057;DHT22;7103;54.300;10.180;2022-09-09T14:36:46;21.50;1.00
14057;DHT22;7103;54.300;10.180;2022-09-09T14:39:14;21.20;1.00
14057;DHT22;7103;54.300;10.180;2022-09-09T14:41:40;21.20;1.00
14057;DHT22;7103;54.300;10.180;2022-09-09T14:44:07;21.10;1.00
14057;DHT22;7103;54.300;10.180;2022-09-09T14:46:35;20.90;1.00
14057;DHT22;7103;54.300;10.180;2022-09-09T14:49:01;20.90;1.00
14057;DHT22;7103;54.300;10.180;2022-09-09T14:51:29;20.80;1.00
14057;DHT22;7103;54.300;10.180;2022-09-09T14:53:58;20.80;1.00
14057;DHT22;7103;54.300;10.180;2022-09-09T14:56:31;20.70;1.00
14057;DHT22;7103;54.300;10.180;2022-09-09T14:58:59;20.70;1.00
14057;DHT22;7103;54.300;10.180;2022-09-09T15:01:28;20.50;1.00
14057;DHT22;7103;54.300;10.180;2022-09-09T15:04:01;20.50;1.00
14057;DHT22;7103;54.300;10.180;2022-09-09T15:06:29;20.50;1.00
14057;DHT22;7103;54.300;10.180;2022-09-09T15:08:57;20.30;1.00
14057;DHT22;7103;54.300;10.180;2022-09-09T15:11:29;20.30;1.00
14057;DHT22;7103;54.300;10.180;2022-09-09T15:13:57;20.10;1.00
14057;DHT22;7103;54.300;10.180;2022-09-09T15:16:26;20.00;1.00
14057;DHT22;7103;54.300;10.180;2022-09-09T15:18:55;19.90;1.00
14057;DHT22;7103;54.300;10.180;2022-09-09T15:21:26;19.80;1.00
14057;DHT22;7103;54.300;10.180;2022-09-09T15:23:54;19.70;1.00
14057;DHT22;7103;54.300;10.180;2022-09-09T15:26:21;19.60;1.00
14057;DHT22;7103;54.300;10.180;2022-09-09T15:28:49;19.60;1.00
14057;DHT22;7103;54.300;10.180;2022-09-09T15:31:20;19.40;1.00
14057;DHT22;7103;54.300;10.180;2022-09-09T15:33:51;19.00;1.00
14057;DHT22;7103;54.300;10.180;2022-09-09T15:36:24;18.90;1.00
14057;DHT22;7103;54.300;10.180;2022-09-09T15:38:51;18.70;1.00
14057;DHT22;7103;54.300;10.180;2022-09-09T15:41:20;18.60;1.00
14057;DHT22;7103;54.300;10.180;2022-09-09T15:43:49;18.40;1.00
14057;DHT22;7103;54.300;10.180;2022-09-09T15:48:44;18.10;71.70
14057;DHT22;7103;54.300;10.180;2022-09-09T15:51:14;18.10;78.20
14057;DHT22;7103;54.300;10.180;2022-09-09T15:54:01;18.00;94.40
14057;DHT22;7103;54.300;10.180;2022-09-09T15:56:29;18.00;99.90
14057;DHT22;7103;54.300;10.180;2022-09-09T15:59:00;18.00;99.90
14057;DHT22;7103;54.300;10.180;2022-09-09T16:01:27;17.90;99.90
14057;DHT22;7103;54.300;10.180;2022-09-09T16:03:55;17.80;99.90
14057;DHT22;7103;54.300;10.180;2022-09-09T16:06:23;17.80;99.90
14057;DHT22;7103;54.300;10.180;2022-09-09T16:08:52;17.80;99.90
14057;DHT22;7103;54.300;10.180;2022-09-09T16:11:25;17.80;99.90
14057;DHT22;7103;54.300;10.180;2022-09-09T16:13:53;17.70;99.90
14057;DHT22;7103;54.300;10.180;2022-09-09T16:16:23;17.80;99.90
14057;DHT22;7103;54.300;10.180;2022-09-09T16:18:53;17.90;99.90
14057;DHT22;7103;54.300;10.180;2022-09-09T16:21:29;17.90;99.90
14057;DHT22;7103;54.300;10.180;2022-09-09T16:24:01;17.80;99.90
14057;DHT22;7103;54.300;10.180;2022-09-09T16:26:33;17.80;99.90
14057;DHT22;7103;54.300;10.180;2022-09-09T16:29:01;17.80;99.90
14057;DHT22;7103;54.300;10.180;2022-09-09T16:31:29;17.80;99.90
14057;DHT22;7103;54.300;10.180;2022-09-09T16:33:58;17.80;99.90
14057;DHT22;7103;54.300;10.180;2022-09-09T16:36:28;17.90;99.90
14057;DHT22;7103;54.300;10.180;2022-09-09T16:39:03;17.60;99.90
14057;DHT22;7103;54.300;10.180;2022-09-09T16:41:31;17.40;99.90
14057;DHT22;7103;54.300;10.180;2022-09-09T16:44:00;17.40;99.90
14057;DHT22;7103;54.300;10.180;2022-09-09T16:46:30;17.40;99.90
14057;DHT22;7103;54.300;10.180;2022-09-09T16:48:59;17.40;99.90
14057;DHT22;7103;54.300;10.180;2022-09-09T16:51:29;17.30;99.90
14057;DHT22;7103;54.300;10.180;2022-09-09T16:53:58;17.30;99.90
14057;DHT22;7103;54.300;10.180;2022-09-09T16:56:30;17.30;99.90
14057;DHT22;7103;54.300;10.180;2022-09-09T16:59:04;17.20;99.90
14057;DHT22;7103;54.300;10.180;2022-09-09T17:01:34;17.10;99.90
14057;DHT22;7103;54.300;10.180;2022-09-09T17:04:06;17.00;99.90
14057;DHT22;7103;54.300;10.180;2022-09-09T17:06:34;16.90;99.90
14057;DHT22;7103;54.300;10.180;2022-09-09T17:09:05;16.90;99.90
14057;DHT22;7103;54.300;10.180;2022-09-09T17:11:33;16.80;99.90
14057;DHT22;7103;54.300;10.180;2022-09-09T17:14:00;16.80;99.90
14057;DHT22;7103;54.300;10.180;2022-09-09T17:16:32;17.10;99.90
14057;DHT22;7103;54.300;10.180;2022-09-09T17:19:01;17.10;99.90
14057;DHT22;7103;54.300;10.180;2022-09-09T17:21:29;17.00;99.90
14057;DHT22;7103;54.300;10.180;2022-09-09T17:23:57;16.90;99.90
14057;DHT22;7103;54.300;10.180;2022-09-09T17:26:28;16.80;99.90
14057;DHT22;7103;54.300;10.180;2022-09-09T17:28:56;16.70;99.90
14057;DHT22;7103;54.300;10.180;2022-09-09T17:31:26;16.70;99.90
14057;DHT22;7103;54.300;10.180;2022-09-09T17:33:54;16.60;99.90
14057;DHT22;7103;54.300;10.180;2022-09-09T17:36:27;16.60;99.90
14057;DHT22;7103;54.300;10.180;2022-09-09T17:38:55;16.70;99.90
14057;DHT22;7103;54.300;10.180;2022-09-09T17:41:31;16.90;99.90
14057;DHT22;7103;54.300;10.180;2022-09-09T17:43:58;16.80;99.90
14057;DHT22;7103;54.300;10.180;2022-09-09T17:46:30;16.60;99.90
14057;DHT22;7103;54.300;10.180;2022-09-09T17:49:00;16.40;99.90
14057;DHT22;7103;54.300;10.180;2022-09-09T17:51:30;16.40;99.90
14057;DHT22;7103;54.300;10.180;2022-09-09T17:54:09;16.30;99.90
14057;DHT22;7103;54.300;10.180;2022-09-09T17:56:37;16.40;99.90
14057;DHT22;7103;54.300;10.180;2022-09-09T17:59:05;16.40;99.90
14057;DHT22;7103;54.300;10.180;2022-09-09T18:01:35;16.40;99.90
14057;DHT22;7103;54.300;10.180;2022-09-09T18:04:04;16.40;99.90